Time;durP1;ratioP1;P1;durP2;ratioP2;P2;SDS_P1;SDS_P2;PMS_P1;PMS_P2;Temp;Humidity;BMP_temperature;BMP_pressure;BME280_temperature;BME280_humidity;BME280_pressure;Samples;Min_cycle;Max_cycle;Signal;HPM_P1;HPM_P2
2022/10/20 00:03:20;;;;;;;12.10;11.00;;;14.30;99.90;;;;;;10380110;28;21823;-77
2022/10/20 00:08:22;;;;;;;10.23;9.40;;;14.30;99.90;;;;;;10380423;28;20198;-78
2022/10/20 00:13:25;;;;;;;12.73;10.30;;;14.30;99.90;;;;;;10397351;23;20230;-78
2022/10/20 00:18:27;;;;;;;11.73;10.70;;;14.20;99.90;;;;;;10373305;28;20278;-80
2022/10/20 00:23:32;;;;;;;12.17;10.70;;;14.10;99.90;;;;;;10379170;28;20762;-79
2022/10/20 00:28:38;;;;;;;14.53;10.07;;;14.10;99.90;;;;;;10366364;28;20281;-79
2022/10/20 00:33:40;;;;;;;12.03;11.10;;;14.10;99.90;;;;;;10332268;28;20223;-76
2022/10/20 00:38:42;;;;;;;13.07;11.00;;;14.10;99.90;;;;;;10369907;28;20667;-77
2022/10/20 00:43:48;;;;;;;11.83;10.90;;;14.10;99.90;;;;;;10335103;28;20223;-78
2022/10/20 00:48:53;;;;;;;13.17;11.80;;;14.10;99.90;;;;;;10376744;28;20658;-77
2022/10/20 00:54:01;;;;;;;12.60;11.50;;;14.00;99.90;;;;;;10332224;28;20303;-76
2022/10/20 00:59:05;;;;;;;11.37;10.30;;;14.00;99.90;;;;;;10334069;28;20202;-77
2022/10/20 01:04:07;;;;;;;12.80;11.70;;;13.90;99.90;;;;;;10370885;28;20211;-77
2022/10/20 01:09:13;;;;;;;13.87;11.27;;;13.90;99.90;;;;;;10330743;28;20199;-77
2022/10/20 01:14:31;;;;;;;15.63;11.57;;;13.80;99.90;;;;;;10370096;28;20221;-77
2022/10/20 01:20:03;;;;;;;13.80;12.03;;;13.80;99.90;;;;;;10333094;28;20545;-77
2022/10/20 01:25:16;;;;;;;13.13;11.83;;;13.80;99.90;;;;;;10375976;28;20207;-78
2022/10/20 01:30:21;;;;;;;13.07;11.90;;;13.80;99.90;;;;;;10336014;28;20198;-79
2022/10/20 01:35:33;;;;;;;13.03;11.70;;;13.70;99.90;;;;;;10350079;28;20698;-77
2022/10/20 01:40:40;;;;;;;13.57;12.47;;;13.70;99.90;;;;;;10351962;28;20190;-77
2022/10/20 01:45:46;;;;;;;13.47;12.33;;;13.70;99.90;;;;;;10360328;28;20564;-77
2022/10/20 01:50:49;;;;;;;14.43;13.10;;;13.70;99.90;;;;;;10337867;28;20388;-77
2022/10/20 01:55:52;;;;;;;15.50;14.13;;;13.70;99.90;;;;;;10361353;28;20283;-77
2022/10/20 02:01:01;;;;;;;15.37;14.07;;;13.70;99.90;;;;;;10356564;28;20651;-77
2022/10/20 02:06:18;;;;;;;15.93;14.63;;;13.70;99.90;;;;;;10355946;28;20698;-77
2022/10/20 02:11:27;;;;;;;16.43;13.80;;;13.70;99.90;;;;;;10338405;28;20670;-77
2022/10/20 02:16:33;;;;;;;15.37;13.87;;;13.60;99.90;;;;;;10357443;28;20225;-77
2022/10/20 02:21:36;;;;;;;15.10;13.90;;;13.60;99.90;;;;;;10338101;28;20198;-77
2022/10/20 02:26:39;;;;;;;16.20;14.90;;;13.60;99.90;;;;;;10358556;28;20223;-77
2022/10/20 02:31:44;;;;;;;14.83;13.50;;;13.60;99.90;;;;;;10339524;28;20210;-77
2022/10/20 02:36:46;;;;;;;16.30;14.70;;;13.50;99.90;;;;;;10358085;28;20326;-77
2022/10/20 02:41:48;;;;;;;16.47;15.00;;;13.50;99.90;;;;;;10338181;28;20191;-77
2022/10/20 02:46:52;;;;;;;16.73;15.23;;;13.40;99.90;;;;;;10359172;28;20229;-77
2022/10/20 02:51:54;;;;;;;16.53;15.13;;;13.40;99.90;;;;;;10338885;28;20565;-78
2022/10/20 02:56:56;;;;;;;18.00;16.10;;;13.40;99.90;;;;;;10363059;28;20226;-77
2022/10/20 03:01:59;;;;;;;17.20;15.50;;;13.50;99.90;;;;;;10360024;28;20588;-79
2022/10/20 03:07:01;;;;;;;16.10;14.80;;;13.50;99.90;;;;;;10361823;28;20215;-76
2022/10/20 03:12:04;;;;;;;18.30;16.70;;;13.60;99.90;;;;;;10337028;28;20211;-77
2022/10/20 03:17:07;;;;;;;20.97;17.60;;;13.50;99.90;;;;;;10363408;28;20245;-77
2022/10/20 03:22:09;;;;;;;20.33;17.20;;;13.50;99.90;;;;;;10343309;28;20229;-77
2022/10/20 03:27:11;;;;;;;19.10;16.97;;;13.40;99.90;;;;;;10368487;28;20221;-76
2022/10/20 03:32:15;;;;;;;18.57;16.97;;;13.40;99.90;;;;;;10341227;28;20207;-76
2022/10/20 03:37:17;;;;;;;18.70;16.70;;;13.50;99.90;;;;;;10366663;28;20235;-79
2022/10/20 03:42:19;;;;;;;20.93;18.73;;;13.60;99.90;;;;;;10339016;28;20652;-77
2022/10/20 03:47:22;;;;;;;19.80;17.90;;;13.60;99.90;;;;;;10368024;28;20219;-76
2022/10/20 03:52:24;;;;;;;18.90;17.40;;;13.70;99.90;;;;;;10343327;28;20701;-76
2022/10/20 03:57:26;;;;;;;18.07;16.47;;;13.70;99.90;;;;;;10369096;28;20305;-76
2022/10/20 04:02:33;;;;;;;20.13;18.10;;;13.70;99.90;;;;;;10342577;28;20637;-77
2022/10/20 04:07:35;;;;;;;18.57;16.83;;;13.80;99.90;;;;;;10370245;28;20362;-79
2022/10/20 04:12:37;;;;;;;23.77;21.17;;;13.80;99.90;;;;;;10337976;28;20619;-79
2022/10/20 04:17:41;;;;;;;21.50;19.70;;;13.80;99.90;;;;;;10371905;28;20219;-79
2022/10/20 04:22:43;;;;;;;23.30;21.10;;;13.80;99.90;;;;;;10337858;28;20273;-77
2022/10/20 04:27:45;;;;;;;19.80;17.90;;;13.80;99.90;;;;;;10368825;28;20238;-77
2022/10/20 04:32:48;;;;;;;21.97;19.77;;;13.80;99.90;;;;;;10335867;28;20246;-77
2022/10/20 04:37:52;;;;;;;28.50;26.10;;;13.80;99.90;;;;;;10371825;28;20199;-80
2022/10/20 04:42:54;;;;;;;22.00;20.20;;;13.90;99.90;;;;;;10372992;28;20197;-77
2022/10/20 04:47:59;;;;;;;22.67;20.43;;;13.90;99.90;;;;;;10334231;28;20281;-77
2022/10/20 04:53:01;;;;;;;24.47;22.10;;;14.00;99.90;;;;;;10376826;28;20751;-77
2022/10/20 04:58:03;;;;;;;24.20;22.10;;;14.00;99.90;;;;;;10347204;28;20190;-77
2022/10/20 05:03:07;;;;;;;26.33;23.73;;;14.00;99.90;;;;;;10331738;28;20254;-77
2022/10/20 05:08:09;;;;;;;24.10;21.63;;;14.10;99.90;;;;;;10367419;28;20623;-77
2022/10/20 05:13:11;;;;;;;25.03;22.40;;;14.10;99.90;;;;;;10354615;28;20230;-77
2022/10/20 05:18:16;;;;;;;22.70;20.43;;;14.10;99.90;;;;;;10375019;28;20196;-80
2022/10/20 05:23:18;;;;;;;22.60;20.30;;;14.20;99.90;;;;;;10330814;28;20285;-78
2022/10/20 05:28:20;;;;;;;24.40;22.20;;;14.20;99.90;;;;;;10369657;28;20245;-79
2022/10/20 05:33:23;;;;;;;23.87;21.53;;;14.20;99.90;;;;;;10351765;28;20227;-77
2022/10/20 05:38:25;;;;;;;24.73;22.17;;;14.20;99.90;;;;;;10371495;28;20241;-79
2022/10/20 05:43:27;;;;;;;24.83;22.53;;;14.20;99.90;;;;;;10355811;28;20222;-78
2022/10/20 05:48:31;;;;;;;24.80;22.50;;;14.20;99.90;;;;;;10349042;28;20539;-77
2022/10/20 05:53:33;;;;;;;23.57;21.13;;;14.20;99.90;;;;;;10371133;28;20733;-76
2022/10/20 05:58:35;;;;;;;23.43;21.40;;;14.30;99.90;;;;;;10353617;28;20609;-77
2022/10/20 06:03:38;;;;;;;23.67;21.53;;;14.30;99.90;;;;;;10369600;28;20302;-79
2022/10/20 06:08:40;;;;;;;24.63;22.33;;;14.30;99.90;;;;;;10340015;28;20206;-78
2022/10/20 06:13:43;;;;;;;23.17;21.07;;;14.30;99.90;;;;;;10382375;28;20242;-76
2022/10/20 06:18:46;;;;;;;20.67;18.70;;;14.30;99.90;;;;;;10330161;28;20680;-78
2022/10/20 06:23:49;;;;;;;25.73;20.60;;;14.40;99.90;;;;;;10365972;28;20210;-78
2022/10/20 06:28:54;;;;;;;24.37;21.97;;;14.40;99.90;;;;;;10329779;28;20631;-79
2022/10/20 06:33:58;;;;;;;27.03;24.33;;;14.50;99.90;;;;;;10327435;28;20223;-76
2022/10/20 06:39:00;;;;;;;26.47;23.87;;;14.50;99.90;;;;;;10314164;28;20207;-77
2022/10/20 06:44:03;;;;;;;20.00;18.30;;;14.60;99.90;;;;;;10366699;28;20717;-77
2022/10/20 06:49:07;;;;;;;23.73;21.27;;;14.60;99.90;;;;;;10333118;28;20221;-77
2022/10/20 06:54:09;;;;;;;23.80;21.40;;;14.60;99.90;;;;;;10371265;28;20232;-77
2022/10/20 06:59:11;;;;;;;22.30;20.40;;;14.60;99.90;;;;;;10377254;28;20194;-77
2022/10/20 07:04:15;;;;;;;22.47;20.17;;;14.70;99.90;;;;;;10376825;28;20272;-76
2022/10/20 07:09:19;;;;;;;21.30;18.97;;;14.70;99.90;;;;;;10376651;28;20207;-77
2022/10/20 07:14:21;;;;;;;20.47;18.60;;;14.70;99.90;;;;;;10338137;28;20227;-77
2022/10/20 07:19:25;;;;;;;25.13;21.13;;;14.80;99.90;;;;;;10335263;28;20235;-76
2022/10/20 07:24:27;;;;;;;20.90;18.73;;;14.80;99.90;;;;;;10335838;28;20207;-77
2022/10/20 07:29:30;;;;;;;19.13;17.23;;;14.90;99.90;;;;;;10350656;28;20187;-77
2022/10/20 07:34:33;;;;;;;17.07;15.73;;;14.90;99.90;;;;;;10368616;28;20227;-77
2022/10/20 07:39:35;;;;;;;17.93;15.97;;;15.00;99.90;;;;;;10374138;28;20248;-77
2022/10/20 07:44:37;;;;;;;16.20;14.70;;;15.10;99.90;;;;;;10375478;28;20214;-76
2022/10/20 07:49:41;;;;;;;17.77;16.27;;;15.20;99.90;;;;;;10373803;28;20298;-78
2022/10/20 07:54:43;;;;;;;17.63;15.97;;;15.30;99.90;;;;;;10373629;28;20229;-76
2022/10/20 07:59:45;;;;;;;15.50;14.10;;;15.40;99.90;;;;;;10374748;28;20183;-77
2022/10/20 08:04:48;;;;;;;14.10;12.93;;;15.50;99.90;;;;;;10373591;28;20241;-77
2022/10/20 08:09:50;;;;;;;13.50;12.20;;;15.60;99.90;;;;;;10374356;28;20175;-77
2022/10/20 08:14:52;;;;;;;14.73;13.27;;;15.60;99.90;;;;;;10374078;28;20218;-77
2022/10/20 08:19:56;;;;;;;14.47;13.07;;;15.70;99.90;;;;;;10365307;28;20244;-77
2022/10/20 08:24:58;;;;;;;16.23;14.63;;;15.70;99.90;;;;;;10368051;28;20217;-77
2022/10/20 08:30:00;;;;;;;15.37;14.03;;;15.80;99.90;;;;;;10363604;28;20279;-76
2022/10/20 08:35:04;;;;;;;16.70;14.63;;;15.80;99.90;;;;;;10332697;28;20659;-77
2022/10/20 08:40:07;;;;;;;13.00;12.00;;;15.90;99.90;;;;;;10332609;28;20222;-76
2022/10/20 08:45:14;;;;;;;12.03;11.03;;;16.00;99.90;;;;;;10360208;28;20322;-79
2022/10/20 08:50:20;;;;;;;12.40;11.40;;;16.00;99.90;;;;;;10371387;28;20183;-77
2022/10/20 08:55:27;;;;;;;11.90;10.97;;;16.10;99.90;;;;;;10371163;28;20226;-76
2022/10/20 09:00:30;;;;;;;12.60;11.70;;;16.20;99.90;;;;;;10369794;28;20198;-76
2022/10/20 09:05:34;;;;;;;15.30;11.37;;;16.30;99.90;;;;;;10372150;28;20272;-76
2022/10/20 09:10:39;;;;;;;11.60;10.60;;;16.40;99.90;;;;;;10372117;28;20183;-76
2022/10/20 09:15:42;;;;;;;10.70;9.70;;;16.50;99.90;;;;;;10335083;28;20306;-76
2022/10/20 09:20:51;;;;;;;10.57;9.70;;;16.50;99.90;;;;;;10330937;28;20187;-78
2022/10/20 09:25:53;;;;;;;10.00;9.20;;;16.60;99.90;;;;;;10326706;28;20246;-77
2022/10/20 09:30:56;;;;;;;10.47;9.60;;;16.70;99.90;;;;;;10327213;28;20262;-78
2022/10/20 09:36:04;;;;;;;9.83;9.03;;;16.70;99.90;;;;;;10328868;28;20252;-76
2022/10/20 09:41:13;;;;;;;9.53;8.83;;;16.80;99.90;;;;;;10330618;28;20222;-78
2022/10/20 09:46:19;;;;;;;12.20;9.20;;;16.90;99.90;;;;;;10330394;28;20203;-77
2022/10/20 09:51:25;;;;;;;10.57;9.70;;;16.90;99.90;;;;;;10329218;28;20368;-77
2022/10/20 09:56:29;;;;;;;10.47;9.67;;;17.00;99.90;;;;;;10329793;28;20227;-78
2022/10/20 10:01:31;;;;;;;9.87;9.10;;;17.10;99.90;;;;;;10345156;28;20210;-77
2022/10/20 10:06:41;;;;;;;9.73;9.03;;;17.20;99.90;;;;;;10329757;28;20582;-77
2022/10/20 10:11:43;;;;;;;10.20;9.37;;;17.30;99.90;;;;;;10328449;28;20191;-77
2022/10/20 10:16:46;;;;;;;10.60;9.80;;;17.40;99.90;;;;;;10359739;28;20667;-77
2022/10/20 10:21:58;;;;;;;11.10;10.10;;;17.50;99.90;;;;;;10368852;28;20278;-79
2022/10/20 10:27:01;;;;;;;12.27;10.90;;;17.60;99.90;;;;;;10345915;28;20238;-79
2022/10/20 10:32:13;;;;;;;9.20;8.30;;;17.80;99.90;;;;;;10343056;28;20199;-77
2022/10/20 10:37:18;;;;;;;11.13;10.13;;;17.80;99.90;;;;;;10342608;28;20620;-77
2022/10/20 10:42:45;;;;;;;10.13;9.23;;;17.90;99.90;;;;;;10342876;28;20179;-79
2022/10/20 10:48:09;;;;;;;9.70;8.90;;;18.10;99.90;;;;;;10342720;28;20305;-76
2022/10/20 10:53:23;;;;;;;8.57;7.77;;;18.20;99.90;;;;;;10341546;28;20219;-77
2022/10/20 10:58:41;;;;;;;11.80;10.70;;;18.20;99.90;;;;;;10342906;28;20182;-77
2022/10/20 11:03:58;;;;;;;9.87;9.13;;;18.30;99.90;;;;;;10340849;28;20229;-78
2022/10/20 11:09:14;;;;;;;9.90;9.10;;;18.30;99.90;;;;;;10341130;28;20702;-76
2022/10/20 11:14:30;;;;;;;9.20;8.30;;;18.20;99.90;;;;;;10381236;28;20225;-75
2022/10/20 11:20:04;;;;;;;10.17;9.37;;;18.20;99.90;;;;;;10382602;28;20270;-76
2022/10/20 11:25:19;;;;;;;11.20;10.10;;;18.20;99.90;;;;;;10378544;28;20216;-76
2022/10/20 11:30:22;;;;;;;21.20;17.50;;;18.20;99.90;;;;;;10381154;28;20183;-79
2022/10/20 11:35:33;;;;;;;10.37;9.10;;;18.30;99.90;;;;;;10381954;28;20589;-77
2022/10/20 11:40:40;;;;;;;8.13;7.43;;;18.40;99.90;;;;;;10368250;28;20254;-78
2022/10/20 11:45:48;;;;;;;10.03;9.10;;;18.50;99.90;;;;;;10348171;28;20238;-78
2022/10/20 11:51:04;;;;;;;9.00;8.30;;;18.60;99.90;;;;;;10370998;28;20722;-78
2022/10/20 11:56:33;;;;;;;8.33;7.63;;;18.50;99.90;;;;;;10349403;28;20225;-78
2022/10/20 12:01:41;;;;;;;8.53;7.40;;;18.50;99.90;;;;;;10330619;28;20290;-78
2022/10/20 12:06:57;;;;;;;8.50;7.63;;;18.50;99.90;;;;;;10363829;28;20599;-78
2022/10/20 12:12:03;;;;;;;9.33;8.60;;;18.50;99.90;;;;;;10348853;28;20230;-78
2022/10/20 12:17:27;;;;;;;7.67;7.07;;;18.60;99.90;;;;;;10351237;28;20222;-78
2022/10/20 12:22:48;;;;;;;7.60;7.10;;;18.50;99.90;;;;;;10358462;28;20199;-78
2022/10/20 12:28:24;;;;;;;8.07;7.57;;;18.50;99.90;;;;;;10358396;28;20698;-78
2022/10/20 12:34:02;;;;;;;8.97;8.37;;;18.50;99.90;;;;;;10350586;28;20720;-78
2022/10/20 12:39:16;;;;;;;7.83;7.13;;;18.50;99.90;;;;;;10351831;28;20194;-78
2022/10/20 12:44:19;;;;;;;8.70;7.97;;;18.50;99.90;;;;;;10346033;28;20676;-78
2022/10/20 12:49:29;;;;;;;6.53;6.00;;;18.40;99.90;;;;;;10366915;28;20203;-78
2022/10/20 12:54:34;;;;;;;7.83;7.33;;;18.40;99.90;;;;;;10344983;28;20601;-78
2022/10/20 12:59:39;;;;;;;8.97;7.00;;;18.40;99.90;;;;;;10342030;28;20199;-78
2022/10/20 13:04:56;;;;;;;8.77;8.07;;;18.30;99.90;;;;;;10368578;28;20225;-78
2022/10/20 13:09:58;;;;;;;9.77;8.77;;;18.20;99.90;;;;;;10345199;28;20195;-78
2022/10/20 13:15:05;;;;;;;8.80;8.10;;;18.10;99.90;;;;;;10369972;28;20302;-78
2022/10/20 13:20:36;;;;;;;9.67;8.97;;;17.90;99.90;;;;;;10345506;28;20223;-79
2022/10/20 13:25:43;;;;;;;20.23;14.00;;;17.80;99.90;;;;;;10374825;28;20698;-79
2022/10/20 13:31:22;;;;;;;11.20;10.30;;;17.80;99.90;;;;;;10341562;28;20206;-78
2022/10/20 13:36:46;;;;;;;10.57;9.77;;;17.80;99.90;;;;;;10276148;28;20224;-81
2022/10/20 13:41:56;;;;;;;11.00;9.97;;;17.70;99.90;;;;;;10371769;28;20186;-77
2022/10/20 13:47:10;;;;;;;11.10;10.13;;;17.80;99.90;;;;;;10371109;28;20298;-77
2022/10/20 13:52:16;;;;;;;12.03;10.80;;;17.80;99.90;;;;;;10371052;28;20183;-78
2022/10/20 13:57:26;;;;;;;11.40;10.60;;;17.90;99.90;;;;;;10371221;28;20690;-77
2022/10/20 14:02:30;;;;;;;11.53;10.40;;;17.90;99.90;;;;;;10370043;28;20203;-78
2022/10/20 14:07:39;;;;;;;11.27;10.40;;;18.00;99.90;;;;;;10344447;28;20297;-78
2022/10/20 14:12:41;;;;;;;10.53;9.53;;;18.00;99.90;;;;;;10317602;28;20206;-76
2022/10/20 14:17:54;;;;;;;10.73;10.03;;;18.10;99.90;;;;;;10334214;28;20316;-77
2022/10/20 14:23:00;;;;;;;10.00;9.00;;;18.10;99.90;;;;;;10363520;28;20198;-78
2022/10/20 14:28:02;;;;;;;10.30;9.50;;;18.10;99.90;;;;;;10329176;28;20203;-79
2022/10/20 14:33:05;;;;;;;10.17;9.40;;;18.10;99.90;;;;;;10329031;28;20206;-79
2022/10/20 14:38:17;;;;;;;11.37;10.40;;;18.00;99.90;;;;;;10328987;28;20207;-76
2022/10/20 14:43:24;;;;;;;11.13;10.33;;;18.00;99.90;;;;;;10328502;28;20682;-78
2022/10/20 14:48:31;;;;;;;11.23;10.13;;;18.00;99.90;;;;;;10328388;28;20800;-77
2022/10/20 14:53:34;;;;;;;11.33;9.63;;;17.90;99.90;;;;;;10300936;28;20212;-77
2022/10/20 14:58:39;;;;;;;11.10;10.10;;;17.80;99.90;;;;;;10321224;28;20279;-80
2022/10/20 15:03:41;;;;;;;11.10;10.17;;;17.80;99.90;;;;;;10328308;28;20624;-82
2022/10/20 15:08:56;;;;;;;10.90;10.03;;;17.90;99.90;;;;;;10328048;28;20270;-80
2022/10/20 15:13:59;;;;;;;8.77;8.07;;;17.80;99.90;;;;;;10346286;28;20221;-80
2022/10/20 15:19:25;;;;;;;11.40;10.50;;;17.80;99.90;;;;;;10373014;28;20203;-79
2022/10/20 15:24:29;;;;;;;11.77;10.70;;;17.80;99.90;;;;;;10351216;28;20313;-77
2022/10/20 15:29:32;;;;;;;9.63;8.83;;;17.80;99.90;;;;;;10373622;28;20215;-80
2022/10/20 15:34:34;;;;;;;13.30;12.20;;;17.80;99.90;;;;;;10354482;28;20258;-79
2022/10/20 15:39:38;;;;;;;12.10;11.10;;;17.80;99.90;;;;;;10375585;28;20218;-80
2022/10/20 15:44:40;;;;;;;13.97;12.83;;;17.70;99.90;;;;;;10354397;28;20226;-79
2022/10/20 15:49:42;;;;;;;9.27;8.47;;;17.70;99.90;;;;;;10375876;28;20207;-79
2022/10/20 15:54:45;;;;;;;12.73;11.43;;;17.70;99.90;;;;;;10351970;28;20270;-78
2022/10/20 15:59:47;;;;;;;11.30;10.20;;;17.60;99.90;;;;;;10368722;28;20282;-80
2022/10/20 16:04:49;;;;;;;11.80;10.80;;;17.60;99.90;;;;;;10359742;28;20564;-80
2022/10/20 16:09:53;;;;;;;10.77;9.83;;;17.60;99.90;;;;;;10337413;28;20223;-77
2022/10/20 16:14:55;;;;;;;13.97;12.73;;;17.50;99.90;;;;;;10346999;28;20269;-78
2022/10/20 16:19:57;;;;;;;11.70;10.70;;;17.50;99.90;;;;;;10372669;28;20286;-78
2022/10/20 16:25:01;;;;;;;12.47;11.57;;;17.40;99.90;;;;;;10344475;28;20257;-78
2022/10/20 16:30:04;;;;;;;14.23;12.47;;;17.40;99.90;;;;;;10372356;28;20191;-78
2022/10/20 16:35:06;;;;;;;13.40;12.10;;;17.40;99.90;;;;;;10343102;28;20226;-78
2022/10/20 16:40:10;;;;;;;19.17;17.40;;;17.30;99.90;;;;;;10373289;28;20667;-78
2022/10/20 16:45:13;;;;;;;46.47;34.10;;;17.30;99.90;;;;;;10343182;28;20215;-77
2022/10/20 16:50:15;;;;;;;15.87;14.40;;;17.20;99.90;;;;;;10371765;28;20191;-78
2022/10/20 16:55:18;;;;;;;11.73;10.63;;;17.30;99.90;;;;;;10340253;28;20297;-78
2022/10/20 17:00:20;;;;;;;12.90;11.70;;;17.30;99.90;;;;;;10348774;28;20198;-78
2022/10/20 17:05:22;;;;;;;13.17;12.00;;;17.20;99.90;;;;;;10372577;28;20239;-78
2022/10/20 17:10:26;;;;;;;14.93;13.57;;;17.20;99.90;;;;;;10339954;28;20195;-78
2022/10/20 17:15:28;;;;;;;17.37;13.93;;;17.20;99.90;;;;;;10372595;28;20241;-78
2022/10/20 17:20:30;;;;;;;15.33;13.70;;;17.20;99.90;;;;;;10343158;28;20632;-78
2022/10/20 17:25:34;;;;;;;15.60;14.30;;;17.20;99.90;;;;;;10372189;28;20274;-78
2022/10/20 17:30:41;;;;;;;14.47;13.00;;;17.20;99.90;;;;;;10337055;28;20198;-78
2022/10/20 17:35:47;;;;;;;14.47;13.13;;;17.20;99.90;;;;;;10372615;28;20223;-79
2022/10/20 17:40:51;;;;;;;15.67;14.10;;;17.20;99.90;;;;;;10336175;28;20192;-77
2022/10/20 17:45:57;;;;;;;17.23;15.47;;;17.20;99.90;;;;;;10328614;28;20219;-80
2022/10/20 17:51:00;;;;;;;16.40;14.90;;;17.20;99.90;;;;;;10331274;28;20290;-77
2022/10/20 17:56:06;;;;;;;20.33;14.93;;;17.20;99.90;;;;;;10329219;28;20345;-81
2022/10/20 18:01:09;;;;;;;16.93;15.17;;;17.20;99.90;;;;;;10321512;28;20636;-78
2022/10/20 18:06:13;;;;;;;17.63;14.43;;;17.10;99.90;;;;;;10331262;28;20225;-77
2022/10/20 18:11:21;;;;;;;16.20;14.70;;;17.10;99.90;;;;;;10345883;28;20186;-76
2022/10/20 18:16:24;;;;;;;15.90;14.50;;;17.10;99.90;;;;;;10334017;28;20227;-78
2022/10/20 18:21:27;;;;;;;14.77;13.10;;;17.10;99.90;;;;;;10320767;28;20211;-80
2022/10/20 18:26:32;;;;;;;22.30;15.30;;;17.10;99.90;;;;;;10322084;28;20242;-77
2022/10/20 18:31:36;;;;;;;41.63;31.73;;;17.00;99.90;;;;;;10326795;28;20278;-78
2022/10/20 18:36:39;;;;;;;47.87;33.80;;;17.00;99.90;;;;;;10340567;28;20219;-79
2022/10/20 18:41:43;;;;;;;15.80;14.30;;;17.00;99.90;;;;;;10328040;28;20206;-78
2022/10/20 18:46:45;;;;;;;18.73;16.93;;;16.90;99.90;;;;;;10333536;28;20310;-78
2022/10/20 18:51:48;;;;;;;21.40;16.80;;;16.80;99.90;;;;;;10331827;28;20687;-77
2022/10/20 18:56:52;;;;;;;22.40;17.20;;;16.80;99.90;;;;;;10331969;28;20246;-78
2022/10/20 19:01:54;;;;;;;25.63;22.90;;;16.60;99.90;;;;;;10331431;28;20651;-77
2022/10/20 19:06:56;;;;;;;21.87;18.43;;;16.50;99.90;;;;;;10335691;28;20298;-77
2022/10/20 19:12:00;;;;;;;19.63;17.40;;;16.50;99.90;;;;;;10336052;28;20679;-77
2022/10/20 19:17:02;;;;;;;23.73;21.63;;;16.50;99.90;;;;;;10335205;28;20231;-77
2022/10/20 19:22:04;;;;;;;21.30;19.20;;;16.50;99.90;;;;;;10335187;28;20227;-77
2022/10/20 19:27:08;;;;;;;22.70;20.50;;;16.50;99.90;;;;;;10338240;28;20209;-77
2022/10/20 19:32:10;;;;;;;27.80;24.90;;;16.50;99.90;;;;;;10374754;28;20202;-77
2022/10/20 19:37:13;;;;;;;31.03;27.63;;;16.50;99.90;;;;;;10351149;28;20281;-77
2022/10/20 19:42:16;;;;;;;26.60;22.63;;;16.50;99.90;;;;;;10335846;28;20289;-78
2022/10/20 19:47:18;;;;;;;27.83;24.83;;;16.50;99.90;;;;;;10351575;28;20223;-77
2022/10/20 19:52:20;;;;;;;29.50;24.53;;;16.50;99.90;;;;;;10343467;28;20290;-77
2022/10/20 19:57:24;;;;;;;31.27;25.80;;;16.50;99.90;;;;;;10356678;28;20302;-78
2022/10/20 20:02:26;;;;;;;28.27;25.13;;;16.50;99.90;;;;;;10339640;28;20207;-78
2022/10/20 20:07:27;;;;;;;29.57;26.67;;;16.50;99.90;;;;;;10348413;28;20215;-77
2022/10/20 20:12:31;;;;;;;30.07;27.00;;;16.50;99.90;;;;;;10339655;28;20225;-78
2022/10/20 20:17:33;;;;;;;29.63;26.63;;;16.50;99.90;;;;;;10346001;28;20328;-77
2022/10/20 20:22:35;;;;;;;30.90;27.90;;;16.50;99.90;;;;;;10337980;28;20199;-78
2022/10/20 20:27:39;;;;;;;30.70;27.50;;;16.50;99.90;;;;;;10345897;28;20298;-77
2022/10/20 20:32:41;;;;;;;29.57;26.53;;;16.50;99.90;;;;;;10334837;28;20227;-77
2022/10/20 20:37:43;;;;;;;27.20;24.70;;;16.50;99.90;;;;;;10335715;28;20318;-77
2022/10/20 20:42:47;;;;;;;28.53;25.73;;;16.50;99.90;;;;;;10351711;28;20211;-78
2022/10/20 20:47:49;;;;;;;29.10;26.43;;;16.50;99.90;;;;;;10341487;28;20215;-77
2022/10/20 20:52:51;;;;;;;30.27;27.23;;;16.50;99.90;;;;;;10351534;28;20195;-78
2022/10/20 20:57:55;;;;;;;29.07;26.33;;;16.60;99.90;;;;;;10352176;28;20696;-78
2022/10/20 21:02:57;;;;;;;31.00;27.80;;;16.60;99.90;;;;;;10349747;28;20195;-77
2022/10/20 21:07:58;;;;;;;31.37;28.57;;;16.60;99.90;;;;;;10338554;28;20687;-77
2022/10/20 21:13:02;;;;;;;30.47;27.70;;;16.60;99.90;;;;;;10344328;28;20199;-78
2022/10/20 21:18:04;;;;;;;32.40;27.63;;;16.60;99.90;;;;;;10337130;28;20226;-78
2022/10/20 21:23:06;;;;;;;30.57;27.63;;;16.70;99.90;;;;;;10344854;28;20204;-78
2022/10/20 21:28:10;;;;;;;32.17;29.00;;;16.60;99.90;;;;;;10336143;28;20217;-78
2022/10/20 21:33:12;;;;;;;31.67;28.87;;;16.60;99.90;;;;;;10341404;28;20686;-78
2022/10/20 21:38:14;;;;;;;97.07;51.80;;;16.60;99.90;;;;;;10331476;28;20234;-78
2022/10/20 21:43:18;;;;;;;38.10;33.90;;;16.50;99.90;;;;;;10339215;28;20211;-77
2022/10/20 21:48:20;;;;;;;38.70;33.30;;;16.50;99.90;;;;;;10347930;28;20679;-77
2022/10/20 21:53:22;;;;;;;31.23;28.03;;;16.40;99.90;;;;;;10350036;28;20223;-77
2022/10/20 21:58:25;;;;;;;34.23;30.63;;;16.40;99.90;;;;;;10376536;28;20228;-78
2022/10/20 22:03:27;;;;;;;34.07;30.40;;;16.30;99.90;;;;;;10336683;28;20221;-77
2022/10/20 22:08:29;;;;;;;37.83;32.13;;;16.30;99.90;;;;;;10344139;28;20227;-78
2022/10/20 22:13:33;;;;;;;33.63;29.53;;;16.30;99.90;;;;;;10335322;28;20710;-78
2022/10/20 22:18:35;;;;;;;31.87;28.80;;;16.30;99.90;;;;;;10361221;28;20220;-78
2022/10/20 22:23:37;;;;;;;35.50;29.17;;;16.30;99.90;;;;;;10343717;28;20211;-78
2022/10/20 22:28:41;;;;;;;33.17;29.57;;;16.30;99.90;;;;;;10360860;28;20204;-77
2022/10/20 22:33:43;;;;;;;32.73;29.63;;;16.30;99.90;;;;;;10344867;28;20222;-78
2022/10/20 22:38:45;;;;;;;34.53;31.07;;;16.30;99.90;;;;;;10360595;28;20217;-78
2022/10/20 22:43:48;;;;;;;35.97;31.77;;;16.30;99.90;;;;;;10347513;28;20645;-78
2022/10/20 22:48:50;;;;;;;37.20;31.80;;;16.30;99.90;;;;;;10348823;28;20187;-77
2022/10/20 22:53:52;;;;;;;36.47;32.43;;;16.30;99.90;;;;;;10359841;28;20222;-78
2022/10/20 22:58:56;;;;;;;34.93;31.33;;;16.30;99.90;;;;;;10348701;28;20285;-78
2022/10/20 23:03:58;;;;;;;34.23;30.63;;;16.30;99.90;;;;;;10357256;28;20238;-78
2022/10/20 23:09:00;;;;;;;32.93;29.70;;;16.20;99.90;;;;;;10361076;28;20707;-78
2022/10/20 23:14:03;;;;;;;32.13;29.00;;;16.10;99.90;;;;;;10346970;28;20227;-78
2022/10/20 23:19:05;;;;;;;33.40;29.30;;;16.10;99.90;;;;;;10356987;28;20217;-78
2022/10/20 23:24:07;;;;;;;33.07;29.80;;;16.00;99.90;;;;;;10346557;28;20226;-78
2022/10/20 23:29:10;;;;;;;32.87;29.27;;;15.90;99.90;;;;;;10357282;28;20717;-77
2022/10/20 23:34:12;;;;;;;31.53;28.30;;;15.80;99.90;;;;;;10352479;28;20596;-78
2022/10/20 23:39:15;;;;;;;31.10;27.50;;;15.80;99.90;;;;;;10361989;28;20241;-78
2022/10/20 23:44:18;;;;;;;33.90;29.40;;;15.80;99.90;;;;;;10353851;28;20550;-78
2022/10/20 23:49:20;;;;;;;34.57;29.30;;;15.70;99.90;;;;;;10361580;28;20210;-78
2022/10/20 23:54:23;;;;;;;33.73;29.00;;;15.60;99.90;;;;;;10354494;28;20211;-78
2022/10/20 23:59:26;;;;;;;35.97;28.20;;;15.60;99.90;;;;;;10340170;28;20219;-77
